16 Dec 2018 10:48 UTC 2018350+10:48 UTC

Overview Datums Bench Marks Data Query Site Visit Daily QC Messages Attributes

043: Nueces Delta 3

27° 53' 1" N   97° 31' 59" W
NUDE3
The Coastal Bend Bays & Estuaries Program Coastal Bend Bays and Estuaries Program

Station Information

Nueces Delta 3
Nueces Delta 3
more pictures
 
Station Name:Nueces Delta 3
DNR ID:043
Location:27° 53' 1" N, 97° 31' 59" W

Water Level Forecasts

Latest Observations

Series Metric English Marine Observed at
Water Temperature 11.2 °C 52.2 °F 52.2 °F Dec 16 04:36 CST
00h06m ago
Salinity 4.200 psu 4.200 psu 4.200 psu Dec 16 04:36 CST
00h06m ago

Maps

Nueces Delta 3
All Stations in Area
Entire Network
 

Recent Observations

Date/Time Water
Temp (°F)
Sal (psu)
Dec 16 04:00 CST 52.7 4.200
Dec 16 03:00 CST 53.4 4.100
Dec 16 02:00 CST 54.0 4.200
Dec 16 01:00 CST 54.5 4.200
Dec 16 00:00 CST 55.0 4.300
Dec 15 23:00 CST 55.8 4.300
Dec 15 22:00 CST 56.5 4.300
Dec 15 21:00 CST 57.0 4.400
Dec 15 20:00 CST 57.4 4.500
Dec 15 19:00 CST 57.7 4.600
Dec 15 18:00 CST 58.1 4.700
Dec 15 17:00 CST 58.3 4.900
Dec 15 16:00 CST 58.3 5.000
Dec 15 15:00 CST 57.6 4.900
Dec 15 14:00 CST 56.5 4.500
Dec 15 13:00 CST 55.0 4.400
Dec 15 12:00 CST 53.1 4.200
Dec 15 11:00 CST 51.4 4.000
Dec 15 10:00 CST 50.2 4.000
Dec 15 09:00 CST 49.6 3.900
Dec 15 08:00 CST 49.8 4.000
Dec 15 07:00 CST 50.2 4.000
Dec 15 06:00 CST 50.7 4.100
Dec 15 05:00 CST 51.3 4.100
Dec 15 04:00 CST 51.6 4.000

Historical Data Availability